Terminal Aerodrome Forecast
Issued by NWS Shreveport, LA

Home | Current Version | Previous Version | Text Only | Print | Product List | Glossary On
Versions: 1 2 3 4 5 6 7 8 9 10 11 12 13 14 15
000
FTUS44 KSHV 261742
TAFSHV
TAF
KSHV 261742Z 2618/2718 19014G22KT P6SM SCT025 OVC035
     FM262000 20015G24KT P6SM SCT035 BKN045
     FM270100 19011KT P6SM BKN050
     FM270500 19008KT P6SM BKN025 OVC035
     FM270800 19008KT P6SM BKN007 OVC015
     FM271300 19012KT P6SM BKN015 OVC025=

USA.gov is the U.S. government's official web portal to all federal, state and local government web resources and services.